createdAt,value
2019-01-24T00:01:31.915Z,41.00
2019-01-24T00:04:35.424Z,42.33
2019-01-24T00:06:58.759Z,38.23
2019-01-24T00:09:28.234Z,41.53
2019-01-24T00:12:00.004Z,40.23
2019-01-24T00:14:29.086Z,37.57
2019-01-24T00:16:58.183Z,39.83
2019-01-24T00:19:27.373Z,41.07
2019-01-24T00:21:57.722Z,37.93
2019-01-24T00:24:35.903Z,37.40
2019-01-24T00:27:05.176Z,38.30
2019-01-24T00:29:35.381Z,40.27
2019-01-24T00:32:05.986Z,36.30
2019-01-24T00:34:35.043Z,40.37
2019-01-24T00:37:04.074Z,37.53
2019-01-24T00:39:35.901Z,35.47
2019-01-24T00:42:04.952Z,36.80
2019-01-24T00:44:33.948Z,37.23
2019-01-24T00:47:02.990Z,39.87
2019-01-24T00:49:32.083Z,39.07
2019-01-24T00:52:01.164Z,37.00
2019-01-24T00:54:30.190Z,36.27
2019-01-24T00:56:59.222Z,38.47
2019-01-24T00:59:28.345Z,36.63
2019-01-24T01:01:57.491Z,37.13
2019-01-24T01:04:29.742Z,38.67
2019-01-24T01:06:57.259Z,35.37
2019-01-24T01:09:26.237Z,38.67
2019-01-24T01:11:55.317Z,33.93
2019-01-24T01:14:24.329Z,34.53
2019-01-24T01:16:53.707Z,35.93
2019-01-24T01:19:22.755Z,37.23
2019-01-24T01:21:51.633Z,38.97
2019-01-24T01:24:20.600Z,34.20
2019-01-24T01:26:49.932Z,44.63
2019-01-24T01:29:18.902Z,37.70
2019-01-24T01:31:47.999Z,37.27
2019-01-24T01:34:16.976Z,40.23
2019-01-24T01:36:45.961Z,38.90
2019-01-24T01:39:15.154Z,41.00
2019-01-24T01:41:44.175Z,39.80
2019-01-24T01:44:13.176Z,35.43
2019-01-24T01:46:42.250Z,41.77
2019-01-24T01:49:11.253Z,43.37
2019-01-24T01:51:40.205Z,41.10
2019-01-24T01:54:09.149Z,43.30
2019-01-24T01:56:38.216Z,41.13
2019-01-24T01:59:07.231Z,43.17
2019-01-24T02:01:36.272Z,39.20
2019-01-24T02:04:05.325Z,36.60
2019-01-24T02:06:35.574Z,36.53
2019-01-24T02:09:08.983Z,39.90
2019-01-24T02:11:38.030Z,38.90
2019-01-24T02:14:07.549Z,40.97
2019-01-24T02:16:36.589Z,38.03
2019-01-24T02:19:05.876Z,40.83
2019-01-24T02:21:35.025Z,38.93
2019-01-24T02:24:04.494Z,35.47
2019-01-24T02:26:33.477Z,41.30
2019-01-24T02:29:02.558Z,38.97
2019-01-24T02:31:31.539Z,36.77
2019-01-24T02:34:00.505Z,39.77
2019-01-24T02:36:29.431Z,39.77
2019-01-24T02:38:58.544Z,37.73
2019-01-24T02:41:27.780Z,36.53
2019-01-24T02:43:56.714Z,33.60
2019-01-24T02:46:25.736Z,37.23
2019-01-24T02:48:54.737Z,37.03
2019-01-24T02:51:23.685Z,33.83
2019-01-24T02:53:54.047Z,36.27
2019-01-24T02:56:23.077Z,34.27
2019-01-24T02:58:52.097Z,35.03
2019-01-24T03:01:21.116Z,38.83
2019-01-24T03:03:50.184Z,32.50
2019-01-24T03:06:19.521Z,39.20
2019-01-24T03:08:48.480Z,37.77
2019-01-24T03:11:17.421Z,37.67
2019-01-24T03:13:46.401Z,34.47
2019-01-24T03:16:15.429Z,38.30
2019-01-24T03:18:44.321Z,32.20
2019-01-24T03:21:13.354Z,38.20
2019-01-24T03:23:42.718Z,38.23
2019-01-24T03:26:11.680Z,33.97
2019-01-24T03:28:40.723Z,35.60
2019-01-24T03:31:09.708Z,34.73
2019-01-24T03:33:38.749Z,37.23
2019-01-24T03:36:07.981Z,35.47
2019-01-24T03:38:36.926Z,33.20
2019-01-24T03:41:05.920Z,35.60
2019-01-24T03:43:34.985Z,36.37
2019-01-24T03:46:04.129Z,37.73
2019-01-24T03:48:33.101Z,36.23
2019-01-24T03:51:02.185Z,37.43
2019-01-24T03:53:31.154Z,36.80
2019-01-24T03:56:00.295Z,35.57
2019-01-24T03:58:29.417Z,35.57
2019-01-24T04:00:58.433Z,40.60
2019-01-24T04:03:27.505Z,35.90
2019-01-24T04:05:56.548Z,34.27
2019-01-24T04:08:25.556Z,39.33
2019-01-24T04:10:54.616Z,37.67
2019-01-24T04:13:23.737Z,41.17
2019-01-24T04:15:52.758Z,37.37
2019-01-24T04:18:21.684Z,40.83
2019-01-24T04:20:52.941Z,41.73
2019-01-24T04:23:21.908Z,40.73
2019-01-24T04:25:50.862Z,41.80
2019-01-24T04:28:20.080Z,44.50
2019-01-24T04:30:49.032Z,43.67
2019-01-24T04:33:17.980Z,42.47
2019-01-24T04:35:48.925Z,42.13
2019-01-24T04:38:17.955Z,42.83
2019-01-24T04:40:47.399Z,39.97
2019-01-24T04:43:16.434Z,42.83
2019-01-24T04:45:45.383Z,43.70
2019-01-24T04:48:14.257Z,42.27
2019-01-24T04:50:43.292Z,43.13
2019-01-24T04:53:13.223Z,40.27
2019-01-24T04:55:42.251Z,46.13
2019-01-24T04:58:11.331Z,44.10
2019-01-24T05:00:40.344Z,45.63
2019-01-24T05:03:09.283Z,44.13
2019-01-24T05:05:38.461Z,45.97
2019-01-24T05:08:07.480Z,45.37
2019-01-24T05:10:36.497Z,45.87
2019-01-24T05:13:05.549Z,45.20
2019-01-24T05:15:34.579Z,44.77
2019-01-24T05:18:03.445Z,42.33
2019-01-24T05:20:32.568Z,37.63
2019-01-24T05:23:01.432Z,38.43
2019-01-24T05:25:30.689Z,39.33
2019-01-24T05:27:59.685Z,40.23
2019-01-24T05:30:29.534Z,45.57
2019-01-24T05:32:58.489Z,43.10
2019-01-24T05:35:34.492Z,42.90
2019-01-24T05:38:00.041Z,44.13
2019-01-24T05:40:29.088Z,41.73
2019-01-24T05:42:58.123Z,45.93
2019-01-24T05:45:27.225Z,42.77
2019-01-24T05:47:56.180Z,47.50
2019-01-24T05:50:25.194Z,42.70
2019-01-24T05:52:54.257Z,47.03
2019-01-24T05:55:23.280Z,46.07
2019-01-24T05:57:52.382Z,47.80
2019-01-24T06:00:26.878Z,45.27
2019-01-24T06:02:55.921Z,45.20
2019-01-24T06:05:24.953Z,46.30
2019-01-24T06:07:54.048Z,49.93
2019-01-24T06:10:23.086Z,47.10
2019-01-24T06:12:52.106Z,43.70
2019-01-24T06:15:21.189Z,49.77
2019-01-24T06:17:50.209Z,51.70
2019-01-24T06:20:19.278Z,40.97
2019-01-24T06:22:48.633Z,44.57
2019-01-24T06:25:17.757Z,50.90
2019-01-24T06:27:46.825Z,43.30
2019-01-24T06:30:17.804Z,43.13
2019-01-24T06:32:46.842Z,41.83
2019-01-24T06:35:15.856Z,41.70
2019-01-24T06:37:48.238Z,39.90
2019-01-24T06:40:17.108Z,42.40
2019-01-24T06:42:46.187Z,38.87
2019-01-24T06:45:17.492Z,40.80
2019-01-24T06:47:46.824Z,39.20
2019-01-24T06:50:17.253Z,37.33
2019-01-24T06:52:46.437Z,37.90
2019-01-24T06:55:19.208Z,40.20
2019-01-24T06:57:48.226Z,35.90
2019-01-24T07:00:17.769Z,38.67
2019-01-24T07:02:46.811Z,38.43
2019-01-24T07:05:16.048Z,39.70
2019-01-24T07:07:45.065Z,40.47
2019-01-24T07:10:15.903Z,40.40
2019-01-24T07:12:44.969Z,44.37
2019-01-24T07:15:19.486Z,40.70
2019-01-24T07:17:48.607Z,42.73
2019-01-24T07:20:18.394Z,43.23
2019-01-24T07:22:47.698Z,47.40
2019-01-24T07:25:19.108Z,47.40
2019-01-24T07:27:48.147Z,47.17
2019-01-24T07:30:17.464Z,42.63
2019-01-24T07:32:53.369Z,49.13
2019-01-24T07:35:22.426Z,47.47
2019-01-24T07:37:52.852Z,48.00
2019-01-24T07:40:23.329Z,46.23
2019-01-24T07:42:52.388Z,43.87
2019-01-24T07:45:27.325Z,50.07
2019-01-24T07:48:04.591Z,48.83
2019-01-24T07:50:33.748Z,43.90
2019-01-24T07:53:17.178Z,52.17
2019-01-24T07:55:46.153Z,50.70
2019-01-24T07:58:15.148Z,44.97
2019-01-24T08:00:44.200Z,47.80
2019-01-24T08:03:13.229Z,49.30
2019-01-24T08:05:42.253Z,50.70
2019-01-24T08:08:11.292Z,45.93
2019-01-24T08:10:40.370Z,45.33
2019-01-24T08:13:09.397Z,45.40
2019-01-24T08:15:38.490Z,42.93
2019-01-24T08:18:07.853Z,49.77
2019-01-24T08:20:36.903Z,47.13
2019-01-24T08:23:05.936Z,44.83
2019-01-24T08:25:35.040Z,46.17
2019-01-24T08:28:04.131Z,44.40
2019-01-24T08:30:34.276Z,48.50
2019-01-24T08:33:03.312Z,50.70
2019-01-24T08:35:32.857Z,46.97
2019-01-24T08:38:01.904Z,45.83
2019-01-24T08:40:31.048Z,40.60
2019-01-24T08:43:03.665Z,44.63
2019-01-24T08:45:32.896Z,43.87
2019-01-24T08:48:01.993Z,41.10
2019-01-24T08:50:31.108Z,43.03
2019-01-24T08:53:00.249Z,42.67
2019-01-24T08:55:37.772Z,41.50
2019-01-24T08:58:07.496Z,46.93
2019-01-24T09:00:37.060Z,43.93
2019-01-24T09:03:06.192Z,42.77
2019-01-24T09:05:35.259Z,40.27
2019-01-24T09:08:04.770Z,45.10
2019-01-24T09:10:35.618Z,42.87
2019-01-24T09:13:05.748Z,37.33
2019-01-24T09:15:35.141Z,41.97
2019-01-24T09:18:04.885Z,41.60
2019-01-24T09:20:33.867Z,45.80
2019-01-24T09:23:03.197Z,45.63
2019-01-24T09:25:32.218Z,38.40
2019-01-24T09:28:01.236Z,41.77
2019-01-24T09:30:30.487Z,41.47
2019-01-24T09:32:59.456Z,42.80
2019-01-24T09:35:28.504Z,41.37
2019-01-24T09:37:57.546Z,44.50
2019-01-24T09:40:26.581Z,49.17
2019-01-24T09:42:55.615Z,47.17
2019-01-24T09:45:29.075Z,44.50
2019-01-24T09:48:01.879Z,43.70
2019-01-24T09:50:31.114Z,47.03
2019-01-24T09:53:00.381Z,43.80
2019-01-24T09:55:29.518Z,43.50
2019-01-24T09:57:58.471Z,45.60
2019-01-24T10:00:37.916Z,45.47
2019-01-24T10:03:07.625Z,44.23
2019-01-24T10:05:36.662Z,45.40
2019-01-24T10:08:06.829Z,46.53
2019-01-24T10:10:35.732Z,48.13
2019-01-24T10:13:05.167Z,45.33
2019-01-24T10:15:34.205Z,56.90
2019-01-24T10:18:04.098Z,48.77
2019-01-24T10:20:33.140Z,45.67
2019-01-24T10:23:02.188Z,44.73
2019-01-24T10:25:36.500Z,46.47
2019-01-24T10:28:06.221Z,46.93
2019-01-24T10:30:42.716Z,44.70
2019-01-24T10:33:08.354Z,49.37
2019-01-24T10:35:37.840Z,46.87
2019-01-24T10:38:06.899Z,47.03
2019-01-24T10:40:36.685Z,45.03
2019-01-24T10:43:06.323Z,135.60
2019-01-24T10:45:35.344Z,47.93
2019-01-24T10:48:04.575Z,47.83
2019-01-24T10:50:35.189Z,46.07
2019-01-24T10:53:04.623Z,49.23
2019-01-24T10:55:33.683Z,44.27
2019-01-24T10:58:03.349Z,49.13
2019-01-24T11:00:38.720Z,53.77
2019-01-24T11:03:12.747Z,46.67
2019-01-24T11:05:41.840Z,46.20
2019-01-24T11:08:11.299Z,46.90
2019-01-24T11:10:41.538Z,47.97
2019-01-24T11:13:10.563Z,48.73
2019-01-24T11:15:40.151Z,44.33
2019-01-24T11:18:09.349Z,42.50
2019-01-24T11:20:39.988Z,47.50
2019-01-24T11:23:08.981Z,49.47
2019-01-24T11:25:38.526Z,47.13
2019-01-24T11:28:07.739Z,47.67
2019-01-24T11:30:37.085Z,45.17
2019-01-24T11:33:06.800Z,47.43
2019-01-24T11:35:36.540Z,47.70
2019-01-24T11:38:07.175Z,45.43
2019-01-24T11:40:36.524Z,46.90
2019-01-24T11:43:19.547Z,48.13
2019-01-24T11:45:48.572Z,44.53
2019-01-24T11:48:17.947Z,45.03
2019-01-24T11:50:47.604Z,47.63
2019-01-24T11:53:16.936Z,39.97
2019-01-24T11:55:46.222Z,46.83
2019-01-24T11:58:15.186Z,46.83
2019-01-24T12:00:48.420Z,45.27
2019-01-24T12:03:17.525Z,47.20
2019-01-24T12:05:46.639Z,45.23
2019-01-24T12:08:15.673Z,42.10
2019-01-24T12:10:45.024Z,48.80
2019-01-24T12:13:14.005Z,45.00
2019-01-24T12:15:43.165Z,48.43
2019-01-24T12:18:12.197Z,50.00
2019-01-24T12:20:41.087Z,46.20
2019-01-24T12:23:10.130Z,45.77
2019-01-24T12:25:39.144Z,49.17
2019-01-24T12:28:08.078Z,45.00
2019-01-24T12:30:37.527Z,47.77
2019-01-24T12:33:07.337Z,47.07
2019-01-24T12:35:36.381Z,44.40
2019-01-24T12:38:05.745Z,48.97
2019-01-24T12:40:34.768Z,51.53
2019-01-24T12:43:04.390Z,49.73
2019-01-24T12:45:35.455Z,48.17
2019-01-24T12:48:04.962Z,49.80
2019-01-24T12:50:33.994Z,46.20
2019-01-24T12:53:03.100Z,51.00
2019-01-24T12:55:32.203Z,54.00
2019-01-24T12:58:01.238Z,49.10
2019-01-24T13:00:36.516Z,55.93
2019-01-24T13:03:10.643Z,48.30
2019-01-24T13:05:39.728Z,51.63
2019-01-24T13:08:09.179Z,51.87
2019-01-24T13:10:38.241Z,48.47
2019-01-24T13:13:07.520Z,47.63
2019-01-24T13:15:36.646Z,50.67
2019-01-24T13:18:06.102Z,49.47
2019-01-24T13:20:35.461Z,50.27
2019-01-24T13:23:04.785Z,55.13
2019-01-24T13:25:59.265Z,50.53
2019-01-24T13:28:28.360Z,57.07
2019-01-24T13:30:57.435Z,53.37
2019-01-24T13:33:26.518Z,55.53
2019-01-24T13:35:55.676Z,54.30
2019-01-24T13:38:24.664Z,54.17
2019-01-24T13:40:53.681Z,48.90
2019-01-24T13:43:22.732Z,57.00
2019-01-24T13:45:51.792Z,110.30
2019-01-24T13:48:20.734Z,58.60
2019-01-24T13:50:49.789Z,54.20
2019-01-24T13:53:18.862Z,55.50
2019-01-24T13:55:47.962Z,58.53
2019-01-24T13:58:17.000Z,57.73
2019-01-24T14:00:45.952Z,58.17
2019-01-24T14:03:42.291Z,58.57
2019-01-24T14:06:10.281Z,52.93
2019-01-24T14:08:39.212Z,54.23
2019-01-24T14:11:08.305Z,57.33
2019-01-24T14:13:37.264Z,124.93
2019-01-24T14:16:06.274Z,60.23
2019-01-24T14:18:35.482Z,54.90
2019-01-24T14:21:04.724Z,67.93
2019-01-24T14:23:33.748Z,57.53
2019-01-24T14:26:02.798Z,58.77
2019-01-24T14:28:31.664Z,64.53
2019-01-24T14:31:02.267Z,75.20
2019-01-24T14:33:31.524Z,68.47
2019-01-24T14:36:00.671Z,60.60
2019-01-24T14:38:29.680Z,58.30
2019-01-24T14:40:58.789Z,61.73
2019-01-24T14:43:27.798Z,54.10
2019-01-24T14:45:56.822Z,57.17
2019-01-24T14:48:26.211Z,58.93
2019-01-24T14:50:55.501Z,61.00
2019-01-24T14:53:24.466Z,119.87
2019-01-24T14:55:53.489Z,60.77
2019-01-24T14:58:22.513Z,59.33
2019-01-24T15:01:05.395Z,59.23
2019-01-24T15:03:34.449Z,78.70
2019-01-24T15:06:03.487Z,60.03
2019-01-24T15:08:33.702Z,60.43
2019-01-24T15:11:02.726Z,56.07
2019-01-24T15:13:31.677Z,57.40
2019-01-24T15:16:00.792Z,55.93
2019-01-24T15:18:30.077Z,87.80
2019-01-24T15:20:59.114Z,58.30
2019-01-24T15:23:28.182Z,60.20
2019-01-24T15:25:57.294Z,62.83
2019-01-24T15:28:26.306Z,54.93
2019-01-24T15:30:55.415Z,66.40
2019-01-24T15:33:25.896Z,57.43
2019-01-24T15:35:54.953Z,61.43
2019-01-24T15:38:23.962Z,58.67
2019-01-24T15:40:52.982Z,60.40
2019-01-24T15:43:22.017Z,60.97
2019-01-24T15:45:50.994Z,60.57
2019-01-24T15:48:20.293Z,57.83
2019-01-24T15:50:49.148Z,62.50
2019-01-24T15:53:18.267Z,61.03
2019-01-24T15:55:47.317Z,63.40
2019-01-24T15:58:16.377Z,60.33
2019-01-24T16:00:47.568Z,59.97
2019-01-24T16:03:16.645Z,61.90
2019-01-24T16:05:45.726Z,58.83
2019-01-24T16:08:14.806Z,60.13
2019-01-24T16:10:46.563Z,60.83
2019-01-24T16:13:15.758Z,62.17
2019-01-24T16:15:46.196Z,62.63
2019-01-24T16:18:15.453Z,58.53
2019-01-24T16:20:44.468Z,64.30
2019-01-24T16:23:13.601Z,61.83
2019-01-24T16:25:42.645Z,60.47
2019-01-24T16:28:11.733Z,68.07
2019-01-24T16:30:40.792Z,60.83
2019-01-24T16:33:09.979Z,68.50
2019-01-24T16:35:39.941Z,67.57
2019-01-24T16:38:09.783Z,59.50
2019-01-24T16:40:39.005Z,66.53
2019-01-24T16:43:08.091Z,67.37
2019-01-24T16:45:37.106Z,67.07
2019-01-24T16:48:06.495Z,61.77
2019-01-24T16:50:35.798Z,64.83
2019-01-24T16:53:05.035Z,67.03
2019-01-24T16:55:34.027Z,65.43
2019-01-24T16:58:03.060Z,61.93
2019-01-24T17:00:38.223Z,61.90
2019-01-24T17:03:07.356Z,65.27
2019-01-24T17:05:36.525Z,64.17
2019-01-24T17:08:06.872Z,64.57
2019-01-24T17:10:36.016Z,69.00
2019-01-24T17:13:06.873Z,65.53
2019-01-24T17:15:38.080Z,63.33
2019-01-24T17:18:07.368Z,59.77
2019-01-24T17:20:36.333Z,62.93
2019-01-24T17:23:06.596Z,66.20
2019-01-24T17:25:35.603Z,67.13
2019-01-24T17:28:05.220Z,66.43
2019-01-24T17:30:35.102Z,65.53
2019-01-24T17:33:05.752Z,64.87
2019-01-24T17:35:34.802Z,67.23
2019-01-24T17:38:03.844Z,68.07
2019-01-24T17:40:33.110Z,77.53
2019-01-24T17:43:02.319Z,64.63
2019-01-24T17:45:32.155Z,61.73
2019-01-24T17:48:01.509Z,65.30
2019-01-24T17:50:30.988Z,71.70
2019-01-24T17:53:00.128Z,70.47
2019-01-24T17:55:31.815Z,69.07
2019-01-24T17:58:00.688Z,70.60
2019-01-24T18:00:32.596Z,67.27
2019-01-24T18:03:10.833Z,71.13
2019-01-24T18:05:39.841Z,67.80
2019-01-24T18:08:08.890Z,72.77
2019-01-24T18:10:37.913Z,72.13
2019-01-24T18:13:07.425Z,68.77
2019-01-24T18:15:37.272Z,72.47
2019-01-24T18:18:08.364Z,78.93
2019-01-24T18:20:37.754Z,74.07
2019-01-24T18:23:08.397Z,69.83
2019-01-24T18:25:37.556Z,72.37
2019-01-24T18:28:07.932Z,71.63
2019-01-24T18:30:36.938Z,71.90
2019-01-24T18:33:06.616Z,66.63
2019-01-24T18:35:35.731Z,69.47
2019-01-24T18:38:05.251Z,71.80
2019-01-24T18:40:34.416Z,72.53
2019-01-24T18:43:03.766Z,71.03
2019-01-24T18:45:38.902Z,71.27
2019-01-24T18:48:07.986Z,70.60
2019-01-24T18:50:37.130Z,79.30
2019-01-24T18:53:06.350Z,77.23
2019-01-24T18:55:35.373Z,73.40
2019-01-24T18:58:06.046Z,72.27
2019-01-24T19:00:37.743Z,74.27
2019-01-24T19:03:08.105Z,80.37
2019-01-24T19:05:37.405Z,70.97
2019-01-24T19:08:06.803Z,74.93
2019-01-24T19:10:35.925Z,74.83
2019-01-24T19:13:06.501Z,80.17
2019-01-24T19:15:35.564Z,70.60
2019-01-24T19:18:05.779Z,77.27
2019-01-24T19:20:34.840Z,71.93
2019-01-24T19:23:04.254Z,70.83
2019-01-24T19:25:33.573Z,73.70
2019-01-24T19:28:02.685Z,81.60
2019-01-24T19:30:32.751Z,75.37
2019-01-24T19:33:01.978Z,75.77
2019-01-24T19:35:31.042Z,78.67
2019-01-24T19:38:00.365Z,80.10
2019-01-24T19:40:29.609Z,76.00
2019-01-24T19:42:58.613Z,67.40
2019-01-24T19:45:27.894Z,72.63
2019-01-24T19:47:56.961Z,75.77
2019-01-24T19:50:27.465Z,73.43
2019-01-24T19:52:56.508Z,72.03
2019-01-24T19:55:25.658Z,69.63
2019-01-24T19:57:55.090Z,73.80
2019-01-24T20:00:31.626Z,77.53
2019-01-24T20:03:01.059Z,75.17
2019-01-24T20:05:30.198Z,86.97
2019-01-24T20:07:59.272Z,74.90
2019-01-24T20:10:29.263Z,76.27
2019-01-24T20:12:58.859Z,73.77
2019-01-24T20:15:29.548Z,75.87
2019-01-24T20:17:59.114Z,70.77
2019-01-24T20:20:28.497Z,73.27
2019-01-24T20:22:57.978Z,69.07
2019-01-24T20:25:28.720Z,77.27
2019-01-24T20:28:01.295Z,68.63
2019-01-24T20:30:31.878Z,76.87
2019-01-24T20:33:03.466Z,70.30
2019-01-24T20:36:02.328Z,77.73
2019-01-24T20:38:31.495Z,71.53
2019-01-24T20:41:00.655Z,74.53
2019-01-24T20:43:35.411Z,77.17
2019-01-24T20:46:00.668Z,73.50
2019-01-24T20:48:29.882Z,70.87
2019-01-24T20:50:59.055Z,73.50
2019-01-24T20:53:28.216Z,73.03
2019-01-24T20:55:57.464Z,72.10
2019-01-24T20:58:26.617Z,72.37
2019-01-24T21:00:55.787Z,72.20
2019-01-24T21:03:24.886Z,67.03
2019-01-24T21:05:53.991Z,68.50
2019-01-24T21:08:23.158Z,75.23
2019-01-24T21:10:52.318Z,73.83
2019-01-24T21:13:21.474Z,72.17
2019-01-24T21:15:50.670Z,70.00
2019-01-24T21:18:19.843Z,78.13
2019-01-24T21:20:48.970Z,75.47
2019-01-24T21:23:18.130Z,74.33
2019-01-24T21:25:47.578Z,78.33
2019-01-24T21:28:21.669Z,74.77
2019-01-24T21:30:51.675Z,77.43
2019-01-24T21:33:39.862Z,74.47
2019-01-24T21:36:11.897Z,73.33
2019-01-24T21:38:40.983Z,68.77
2019-01-24T21:41:16.388Z,72.40
2019-01-24T21:43:46.141Z,77.37
2019-01-24T21:46:17.199Z,76.27
2019-01-24T21:48:46.399Z,80.50
2019-01-24T21:51:20.504Z,86.20
2019-01-24T21:53:59.831Z,90.90
2019-01-24T21:56:32.891Z,91.50
2019-01-24T21:59:08.257Z,87.10
2019-01-24T22:01:40.472Z,87.03
2019-01-24T22:04:17.001Z,78.60
2019-01-24T22:06:46.150Z,75.47
2019-01-24T22:09:15.272Z,78.47
2019-01-24T22:11:47.238Z,72.97
2019-01-24T22:14:16.609Z,77.20
2019-01-24T22:16:46.282Z,80.73
2019-01-24T22:19:15.554Z,77.47
2019-01-24T22:21:44.678Z,80.63
2019-01-24T22:24:13.797Z,76.63
2019-01-24T22:26:43.198Z,79.80
2019-01-24T22:29:23.965Z,87.30
2019-01-24T22:31:53.342Z,80.63
2019-01-24T22:34:22.494Z,75.17
2019-01-24T22:37:26.895Z,81.03
2019-01-24T22:40:53.105Z,74.63
2019-01-24T22:44:19.177Z,77.33
2019-01-24T22:46:27.330Z,84.97
2019-01-24T22:48:56.378Z,76.93
2019-01-24T22:51:25.525Z,76.70
2019-01-24T22:53:55.607Z,69.77
2019-01-24T22:56:24.762Z,79.53
2019-01-24T22:58:53.953Z,75.30
2019-01-24T23:01:44.238Z,77.47
2019-01-24T23:04:24.765Z,71.50
2019-01-24T23:06:53.917Z,79.67
2019-01-24T23:09:23.063Z,72.97
2019-01-24T23:11:52.227Z,77.33
2019-01-24T23:14:21.372Z,86.97
2019-01-24T23:16:50.554Z,101.17
2019-01-24T23:19:20.582Z,85.10
2019-01-24T23:21:49.799Z,97.47
2019-01-24T23:24:18.977Z,106.30
2019-01-24T23:26:48.225Z,97.43
2019-01-24T23:29:17.819Z,96.97
2019-01-24T23:31:47.018Z,87.27
2019-01-24T23:34:16.086Z,105.03
2019-01-24T23:36:45.184Z,99.63
2019-01-24T23:39:14.370Z,94.20
2019-01-24T23:41:43.542Z,105.23
2019-01-24T23:44:12.587Z,104.70
2019-01-24T23:46:41.755Z,100.97
2019-01-24T23:49:10.848Z,95.87
2019-01-24T23:51:40.014Z,99.73
2019-01-24T23:54:09.276Z,100.67
2019-01-24T23:56:38.442Z,110.73
2019-01-24T23:59:07.533Z,105.83
